sensor_id;sensor_type;location;lat;lon;timestamp;pressure;altitude;pressure_sealevel;temperature;humidity
36932;BME280;22847;42.654;23.370;2023-04-20T00:01:31;94296.19;;;12.32;71.30
36932;BME280;22847;42.654;23.370;2023-04-20T00:03:56;94311.03;;;12.47;68.76
36932;BME280;22847;42.654;23.370;2023-04-20T00:06:21;94256.81;;;11.93;67.39
36932;BME280;22847;42.654;23.370;2023-04-20T00:08:47;94290.78;;;12.25;63.94
36932;BME280;22847;42.654;23.370;2023-04-20T00:11:12;94299.94;;;12.13;63.43
36932;BME280;22847;42.654;23.370;2023-04-20T00:13:38;94128.31;;;11.16;65.12
36932;BME280;22847;42.654;23.370;2023-04-20T00:16:03;94197.97;;;11.48;64.21
36932;BME280;22847;42.654;23.370;2023-04-20T00:18:29;94161.06;;;11.19;67.36
36932;BME280;22847;42.654;23.370;2023-04-20T00:20:54;94335.22;;;12.25;65.24
36932;BME280;22847;42.654;23.370;2023-04-20T00:23:20;94317.75;;;12.26;68.26
36932;BME280;22847;42.654;23.370;2023-04-20T00:25:45;94310.22;;;12.23;68.58
36932;BME280;22847;42.654;23.370;2023-04-20T00:28:13;94261.22;;;12.08;64.72
36932;BME280;22847;42.654;23.370;2023-04-20T00:30:39;94154.06;;;11.36;66.91
36932;BME280;22847;42.654;23.370;2023-04-20T00:33:04;94330.00;;;12.33;67.74
36932;BME280;22847;42.654;23.370;2023-04-20T00:35:30;94296.97;;;12.16;67.43
36932;BME280;22847;42.654;23.370;2023-04-20T00:37:55;94162.09;;;11.42;67.85
36932;BME280;22847;42.654;23.370;2023-04-20T00:40:21;94250.13;;;11.90;68.74
36932;BME280;22847;42.654;23.370;2023-04-20T00:42:46;94245.38;;;11.86;67.29
36932;BME280;22847;42.654;23.370;2023-04-20T00:45:12;94292.56;;;12.17;67.54
36932;BME280;22847;42.654;23.370;2023-04-20T00:47:37;94295.53;;;12.05;68.28
36932;BME280;22847;42.654;23.370;2023-04-20T00:50:03;94250.25;;;11.89;66.75
36932;BME280;22847;42.654;23.370;2023-04-20T00:52:29;94284.41;;;12.12;67.55
36932;BME280;22847;42.654;23.370;2023-04-20T00:54:55;94276.91;;;12.17;66.41
36932;BME280;22847;42.654;23.370;2023-04-20T00:57:21;94315.94;;;12.02;68.32
36932;BME280;22847;42.654;23.370;2023-04-20T00:59:51;94162.25;;;11.41;65.33
36932;BME280;22847;42.654;23.370;2023-04-20T01:02:17;94088.25;;;10.67;67.43
36932;BME280;22847;42.654;23.370;2023-04-20T01:04:46;94108.31;;;10.75;68.95
36932;BME280;22847;42.654;23.370;2023-04-20T01:07:11;94293.22;;;11.94;67.22
36932;BME280;22847;42.654;23.370;2023-04-20T01:09:37;94273.63;;;11.90;65.97
36932;BME280;22847;42.654;23.370;2023-04-20T01:12:04;94273.63;;;11.82;66.35
36932;BME280;22847;42.654;23.370;2023-04-20T01:14:30;94093.16;;;10.62;66.36
36932;BME280;22847;42.654;23.370;2023-04-20T01:16:56;94294.84;;;11.79;67.60
36932;BME280;22847;42.654;23.370;2023-04-20T01:19:21;94318.28;;;11.71;69.21
36932;BME280;22847;42.654;23.370;2023-04-20T01:21:47;94301.69;;;11.80;68.59
36932;BME280;22847;42.654;23.370;2023-04-20T01:24:12;94310.63;;;11.70;69.67
36932;BME280;22847;42.654;23.370;2023-04-20T01:26:38;94291.75;;;11.92;67.92
36932;BME280;22847;42.654;23.370;2023-04-20T01:29:03;94260.00;;;11.54;68.21
36932;BME280;22847;42.654;23.370;2023-04-20T01:31:29;94267.88;;;11.71;67.59
36932;BME280;22847;42.654;23.370;2023-04-20T01:33:54;94311.13;;;11.65;68.02
36932;BME280;22847;42.654;23.370;2023-04-20T01:36:20;94288.47;;;11.82;69.56
36932;BME280;22847;42.654;23.370;2023-04-20T01:38:45;94265.41;;;11.69;66.95
36932;BME280;22847;42.654;23.370;2023-04-20T01:41:11;94313.88;;;11.72;69.03
36932;BME280;22847;42.654;23.370;2023-04-20T01:43:37;94320.97;;;11.79;68.20
36932;BME280;22847;42.654;23.370;2023-04-20T01:46:03;94300.38;;;11.84;69.06
36932;BME280;22847;42.654;23.370;2023-04-20T01:48:29;94276.38;;;11.73;70.44
36932;BME280;22847;42.654;23.370;2023-04-20T01:50:55;94082.91;;;10.77;67.84
36932;BME280;22847;42.654;23.370;2023-04-20T01:53:20;94277.88;;;11.99;67.12
36932;BME280;22847;42.654;23.370;2023-04-20T01:55:46;94312.81;;;11.90;67.96
36932;BME280;22847;42.654;23.370;2023-04-20T01:58:12;94272.81;;;11.90;66.92
36932;BME280;22847;42.654;23.370;2023-04-20T02:00:37;94105.59;;;10.85;66.80
36932;BME280;22847;42.654;23.370;2023-04-20T02:03:03;94275.25;;;11.83;67.53
36932;BME280;22847;42.654;23.370;2023-04-20T02:05:28;94258.69;;;11.67;66.70
36932;BME280;22847;42.654;23.370;2023-04-20T02:07:54;94125.91;;;10.65;67.83
36932;BME280;22847;42.654;23.370;2023-04-20T02:10:19;94274.06;;;11.61;68.53
36932;BME280;22847;42.654;23.370;2023-04-20T02:12:46;94280.56;;;11.57;69.52
36932;BME280;22847;42.654;23.370;2023-04-20T02:15:12;94246.94;;;11.46;67.49
36932;BME280;22847;42.654;23.370;2023-04-20T02:17:37;94277.06;;;11.33;68.33
36932;BME280;22847;42.654;23.370;2023-04-20T02:20:03;94270.09;;;11.57;70.00
36932;BME280;22847;42.654;23.370;2023-04-20T02:22:33;94275.91;;;11.77;68.59
36932;BME280;22847;42.654;23.370;2023-04-20T02:25:08;94189.75;;;11.11;69.90
36932;BME280;22847;42.654;23.370;2023-04-20T02:27:34;94271.75;;;11.58;69.49
36932;BME280;22847;42.654;23.370;2023-04-20T02:30:00;94261.59;;;11.39;68.98
36932;BME280;22847;42.654;23.370;2023-04-20T02:32:26;94184.53;;;11.03;68.63
36932;BME280;22847;42.654;23.370;2023-04-20T02:34:51;94272.22;;;11.54;69.95
36932;BME280;22847;42.654;23.370;2023-04-20T02:37:17;94094.38;;;10.42;70.00
36932;BME280;22847;42.654;23.370;2023-04-20T02:39:42;94278.28;;;11.62;70.02
36932;BME280;22847;42.654;23.370;2023-04-20T02:42:08;94269.47;;;11.63;69.83
36932;BME280;22847;42.654;23.370;2023-04-20T02:44:33;94224.19;;;11.23;70.22
36932;BME280;22847;42.654;23.370;2023-04-20T02:46:58;94278.59;;;11.43;70.94
36932;BME280;22847;42.654;23.370;2023-04-20T02:49:24;94282.72;;;11.70;69.30
36932;BME280;22847;42.654;23.370;2023-04-20T02:51:49;94276.56;;;11.87;68.55
36932;BME280;22847;42.654;23.370;2023-04-20T02:54:15;94244.66;;;11.43;69.50
36932;BME280;22847;42.654;23.370;2023-04-20T02:56:41;94254.72;;;11.30;70.83
36932;BME280;22847;42.654;23.370;2023-04-20T02:59:06;94250.16;;;11.32;70.83
36932;BME280;22847;42.654;23.370;2023-04-20T03:01:32;94243.84;;;11.59;68.16
36932;BME280;22847;42.654;23.370;2023-04-20T03:03:57;94256.84;;;11.35;69.98
36932;BME280;22847;42.654;23.370;2023-04-20T03:06:22;94247.28;;;11.59;70.02
36932;BME280;22847;42.654;23.370;2023-04-20T03:08:48;94282.28;;;11.75;69.19
36932;BME280;22847;42.654;23.370;2023-04-20T03:11:13;94103.53;;;10.54;69.41
36932;BME280;22847;42.654;23.370;2023-04-20T03:13:39;94278.84;;;11.82;70.72
36932;BME280;22847;42.654;23.370;2023-04-20T03:16:05;94262.34;;;11.74;69.09
36932;BME280;22847;42.654;23.370;2023-04-20T03:18:31;94258.53;;;11.60;69.55
36932;BME280;22847;42.654;23.370;2023-04-20T03:20:56;94204.00;;;11.41;66.82
36932;BME280;22847;42.654;23.370;2023-04-20T03:23:22;94100.00;;;10.71;67.48
36932;BME280;22847;42.654;23.370;2023-04-20T03:25:47;94260.78;;;11.39;69.34
36932;BME280;22847;42.654;23.370;2023-04-20T03:28:14;94283.41;;;11.72;66.57
36932;BME280;22847;42.654;23.370;2023-04-20T03:30:40;94099.25;;;10.45;69.42
36932;BME280;22847;42.654;23.370;2023-04-20T03:33:05;94080.88;;;10.55;70.01
36932;BME280;22847;42.654;23.370;2023-04-20T03:35:31;94269.03;;;11.76;70.09
36932;BME280;22847;42.654;23.370;2023-04-20T03:37:56;94244.97;;;11.48;68.86
36932;BME280;22847;42.654;23.370;2023-04-20T03:40:21;94269.94;;;11.51;69.10
36932;BME280;22847;42.654;23.370;2023-04-20T03:42:47;94282.69;;;11.62;69.98
36932;BME280;22847;42.654;23.370;2023-04-20T03:45:12;94219.31;;;11.28;68.91
36932;BME280;22847;42.654;23.370;2023-04-20T03:47:38;94258.00;;;11.48;70.25
36932;BME280;22847;42.654;23.370;2023-04-20T03:50:04;94288.31;;;11.75;70.50
36932;BME280;22847;42.654;23.370;2023-04-20T03:52:29;94273.53;;;11.58;69.61
36932;BME280;22847;42.654;23.370;2023-04-20T03:54:55;94248.59;;;11.72;66.73
36932;BME280;22847;42.654;23.370;2023-04-20T03:57:20;94120.09;;;10.87;67.75
36932;BME280;22847;42.654;23.370;2023-04-20T03:59:46;94307.41;;;11.76;66.74
36932;BME280;22847;42.654;23.370;2023-04-20T04:02:11;94273.41;;;11.68;68.16
36932;BME280;22847;42.654;23.370;2023-04-20T04:04:37;94101.94;;;10.69;69.73
36932;BME280;22847;42.654;23.370;2023-04-20T04:07:03;94288.00;;;11.94;70.13
36932;BME280;22847;42.654;23.370;2023-04-20T04:09:28;93976.81;;;10.03;69.54
36932;BME280;22847;42.654;23.370;2023-04-20T04:11:54;94314.59;;;11.82;69.87
36932;BME280;22847;42.654;23.370;2023-04-20T04:14:19;94290.53;;;11.62;69.04
36932;BME280;22847;42.654;23.370;2023-04-20T04:16:44;94279.44;;;11.68;69.36
36932;BME280;22847;42.654;23.370;2023-04-20T04:19:10;94324.56;;;11.94;69.49
36932;BME280;22847;42.654;23.370;2023-04-20T04:21:36;94204.97;;;11.32;69.52
36932;BME280;22847;42.654;23.370;2023-04-20T04:24:01;94254.38;;;11.75;69.39
36932;BME280;22847;42.654;23.370;2023-04-20T04:26:28;94260.72;;;11.73;68.52
36932;BME280;22847;42.654;23.370;2023-04-20T04:28:56;94288.47;;;11.74;67.10
36932;BME280;22847;42.654;23.370;2023-04-20T04:31:22;94126.47;;;11.01;65.70
36932;BME280;22847;42.654;23.370;2023-04-20T04:33:48;94293.41;;;11.93;66.22
36932;BME280;22847;42.654;23.370;2023-04-20T04:36:14;94267.75;;;11.96;64.61
36932;BME280;22847;42.654;23.370;2023-04-20T04:38:43;94300.09;;;12.03;67.90
36932;BME280;22847;42.654;23.370;2023-04-20T04:41:12;94342.56;;;11.97;67.84
36932;BME280;22847;42.654;23.370;2023-04-20T04:43:39;94305.97;;;11.97;65.55
36932;BME280;22847;42.654;23.370;2023-04-20T04:46:08;94326.41;;;12.02;66.95
36932;BME280;22847;42.654;23.370;2023-04-20T04:48:34;94345.97;;;11.98;67.34
36932;BME280;22847;42.654;23.370;2023-04-20T04:51:00;94107.50;;;10.66;68.51
36932;BME280;22847;42.654;23.370;2023-04-20T04:53:26;94311.84;;;11.83;68.29
36932;BME280;22847;42.654;23.370;2023-04-20T04:55:51;94220.97;;;11.45;67.81
36932;BME280;22847;42.654;23.370;2023-04-20T04:58:16;94295.34;;;11.91;68.53
36932;BME280;22847;42.654;23.370;2023-04-20T05:00:42;94336.84;;;12.18;68.41
36932;BME280;22847;42.654;23.370;2023-04-20T05:03:07;94321.19;;;12.18;65.00
36932;BME280;22847;42.654;23.370;2023-04-20T05:05:33;94172.69;;;11.33;65.85
36932;BME280;22847;42.654;23.370;2023-04-20T05:07:58;94316.94;;;12.09;65.15
36932;BME280;22847;42.654;23.370;2023-04-20T05:10:23;94203.50;;;11.29;65.59
36932;BME280;22847;42.654;23.370;2023-04-20T05:12:49;94146.59;;;10.66;66.78
36932;BME280;22847;42.654;23.370;2023-04-20T05:15:16;94319.53;;;12.01;66.52
36932;BME280;22847;42.654;23.370;2023-04-20T05:17:42;94143.56;;;10.95;67.91
36932;BME280;22847;42.654;23.370;2023-04-20T05:20:08;94322.63;;;12.04;67.87
36932;BME280;22847;42.654;23.370;2023-04-20T05:22:35;94313.63;;;12.07;65.43
36932;BME280;22847;42.654;23.370;2023-04-20T05:25:00;94157.28;;;10.97;65.94
36932;BME280;22847;42.654;23.370;2023-04-20T05:27:26;94274.13;;;11.86;66.03
36932;BME280;22847;42.654;23.370;2023-04-20T05:29:51;94276.09;;;11.92;66.46
36932;BME280;22847;42.654;23.370;2023-04-20T05:32:17;94142.31;;;11.07;66.34
36932;BME280;22847;42.654;23.370;2023-04-20T05:34:42;94322.63;;;12.21;66.63
36932;BME280;22847;42.654;23.370;2023-04-20T05:37:07;94140.69;;;11.06;66.64
36932;BME280;22847;42.654;23.370;2023-04-20T05:39:33;94129.91;;;11.17;66.76
36932;BME280;22847;42.654;23.370;2023-04-20T05:41:59;94250.28;;;11.81;65.13
36932;BME280;22847;42.654;23.370;2023-04-20T05:44:24;94332.44;;;12.19;65.72
36932;BME280;22847;42.654;23.370;2023-04-20T05:46:50;94272.66;;;12.07;64.07
36932;BME280;22847;42.654;23.370;2023-04-20T05:49:15;94119.13;;;11.04;63.90
36932;BME280;22847;42.654;23.370;2023-04-20T05:51:41;94332.78;;;12.32;65.02
36932;BME280;22847;42.654;23.370;2023-04-20T05:54:06;94339.47;;;12.02;67.02
36932;BME280;22847;42.654;23.370;2023-04-20T05:56:31;94287.03;;;12.12;65.51
36932;BME280;22847;42.654;23.370;2023-04-20T05:58:58;94303.03;;;12.00;64.46
36932;BME280;22847;42.654;23.370;2023-04-20T06:01:23;94096.41;;;10.64;65.39
36932;BME280;22847;42.654;23.370;2023-04-20T06:03:49;94323.13;;;12.16;65.17
36932;BME280;22847;42.654;23.370;2023-04-20T06:06:14;94166.63;;;11.24;64.48
36932;BME280;22847;42.654;23.370;2023-04-20T06:08:40;94218.34;;;11.37;64.99
36932;BME280;22847;42.654;23.370;2023-04-20T06:11:06;94285.16;;;11.72;67.77
36932;BME280;22847;42.654;23.370;2023-04-20T06:13:31;94346.63;;;12.08;67.89
36932;BME280;22847;42.654;23.370;2023-04-20T06:15:56;94169.41;;;11.31;65.97
36932;BME280;22847;42.654;23.370;2023-04-20T06:18:22;94334.72;;;12.05;68.03
36932;BME280;22847;42.654;23.370;2023-04-20T06:20:47;94179.69;;;11.24;67.51
36932;BME280;22847;42.654;23.370;2023-04-20T06:23:13;94326.88;;;12.05;67.07
36932;BME280;22847;42.654;23.370;2023-04-20T06:25:39;94336.53;;;12.21;67.74
36932;BME280;22847;42.654;23.370;2023-04-20T06:28:05;94272.94;;;11.72;69.14
36932;BME280;22847;42.654;23.370;2023-04-20T06:30:33;94339.47;;;12.18;68.98
36932;BME280;22847;42.654;23.370;2023-04-20T06:33:00;94366.44;;;12.43;66.55
36932;BME280;22847;42.654;23.370;2023-04-20T06:35:25;94119.31;;;11.03;66.70
36932;BME280;22847;42.654;23.370;2023-04-20T06:37:51;94359.72;;;12.48;65.71
36932;BME280;22847;42.654;23.370;2023-04-20T06:40:17;94329.50;;;12.22;65.52
36932;BME280;22847;42.654;23.370;2023-04-20T06:42:43;94133.97;;;11.04;67.39
36932;BME280;22847;42.654;23.370;2023-04-20T06:45:09;94309.88;;;12.34;65.73
36932;BME280;22847;42.654;23.370;2023-04-20T06:47:35;94280.00;;;11.96;66.21
36932;BME280;22847;42.654;23.370;2023-04-20T06:50:02;94204.00;;;11.49;65.17
36932;BME280;22847;42.654;23.370;2023-04-20T06:52:29;94386.38;;;12.36;65.86
36932;BME280;22847;42.654;23.370;2023-04-20T06:54:57;94372.97;;;12.23;67.11
36932;BME280;22847;42.654;23.370;2023-04-20T06:57:22;94135.69;;;10.71;68.66
36932;BME280;22847;42.654;23.370;2023-04-20T06:59:47;94146.84;;;10.97;67.11
36932;BME280;22847;42.654;23.370;2023-04-20T07:02:13;94359.91;;;12.31;67.71
36932;BME280;22847;42.654;23.370;2023-04-20T07:04:39;94173.31;;;11.27;67.17
36932;BME280;22847;42.654;23.370;2023-04-20T07:07:04;94369.22;;;12.33;66.99
36932;BME280;22847;42.654;23.370;2023-04-20T07:09:29;94384.59;;;12.36;67.75
36932;BME280;22847;42.654;23.370;2023-04-20T07:11:55;94189.63;;;11.21;67.99
36932;BME280;22847;42.654;23.370;2023-04-20T07:14:20;94151.25;;;10.97;68.15
36932;BME280;22847;42.654;23.370;2023-04-20T07:16:46;94360.53;;;12.25;67.53
36932;BME280;22847;42.654;23.370;2023-04-20T07:19:11;94375.59;;;12.39;67.92
36932;BME280;22847;42.654;23.370;2023-04-20T07:21:36;94248.09;;;11.52;67.92
36932;BME280;22847;42.654;23.370;2023-04-20T07:24:02;94385.75;;;12.50;67.52
36932;BME280;22847;42.654;23.370;2023-04-20T07:26:27;94386.69;;;12.57;67.06
36932;BME280;22847;42.654;23.370;2023-04-20T07:28:53;94366.47;;;12.51;67.95
36932;BME280;22847;42.654;23.370;2023-04-20T07:31:18;94370.38;;;12.55;68.92
36932;BME280;22847;42.654;23.370;2023-04-20T07:33:44;94343.56;;;12.45;67.24
36932;BME280;22847;42.654;23.370;2023-04-20T07:36:09;94121.13;;;11.18;67.70
36932;BME280;22847;42.654;23.370;2023-04-20T07:38:35;94247.66;;;12.13;67.53
36932;BME280;22847;42.654;23.370;2023-04-20T07:41:01;94397.47;;;13.03;65.09
36932;BME280;22847;42.654;23.370;2023-04-20T07:43:27;94383.09;;;12.98;65.30
36932;BME280;22847;42.654;23.370;2023-04-20T07:45:52;94360.69;;;12.96;65.64
36932;BME280;22847;42.654;23.370;2023-04-20T07:48:18;94386.53;;;12.91;65.33
36932;BME280;22847;42.654;23.370;2023-04-20T07:50:44;94352.16;;;13.18;64.81
36932;BME280;22847;42.654;23.370;2023-04-20T07:53:10;94338.91;;;13.12;62.91
36932;BME280;22847;42.654;23.370;2023-04-20T07:55:35;94369.28;;;13.29;64.50
36932;BME280;22847;42.654;23.370;2023-04-20T07:58:01;94365.53;;;13.31;65.50
36932;BME280;22847;42.654;23.370;2023-04-20T08:00:27;94346.63;;;13.52;65.28
36932;BME280;22847;42.654;23.370;2023-04-20T08:02:52;94382.13;;;13.63;63.80
36932;BME280;22847;42.654;23.370;2023-04-20T08:05:17;94375.41;;;13.68;63.22
36932;BME280;22847;42.654;23.370;2023-04-20T08:07:43;94362.56;;;13.73;62.75
36932;BME280;22847;42.654;23.370;2023-04-20T08:10:09;94338.09;;;13.58;62.73
36932;BME280;22847;42.654;23.370;2023-04-20T08:12:35;94386.56;;;13.93;62.01
36932;BME280;22847;42.654;23.370;2023-04-20T08:15:01;94302.75;;;13.54;62.06
36932;BME280;22847;42.654;23.370;2023-04-20T08:17:29;94358.00;;;14.29;63.28
36932;BME280;22847;42.654;23.370;2023-04-20T08:19:55;94382.09;;;14.55;59.67
36932;BME280;22847;42.654;23.370;2023-04-20T08:22:20;94070.03;;;12.67;62.07
36932;BME280;22847;42.654;23.370;2023-04-20T08:24:46;94352.72;;;14.60;60.54
36932;BME280;22847;42.654;23.370;2023-04-20T08:27:12;94156.13;;;13.46;59.15
36932;BME280;22847;42.654;23.370;2023-04-20T08:29:38;94282.72;;;14.15;60.02
36932;BME280;22847;42.654;23.370;2023-04-20T08:32:04;94319.84;;;14.26;60.21
36932;BME280;22847;42.654;23.370;2023-04-20T08:34:33;94248.69;;;13.61;60.42
36932;BME280;22847;42.654;23.370;2023-04-20T08:36:58;94357.94;;;13.83;61.15
36932;BME280;22847;42.654;23.370;2023-04-20T08:39:24;94358.28;;;14.11;60.92
36932;BME280;22847;42.654;23.370;2023-04-20T08:41:49;94367.34;;;14.01;60.42
36932;BME280;22847;42.654;23.370;2023-04-20T08:44:18;94370.50;;;14.19;60.85
36932;BME280;22847;42.654;23.370;2023-04-20T08:46:46;94369.19;;;14.00;61.28
36932;BME280;22847;42.654;23.370;2023-04-20T08:49:14;94241.66;;;13.31;62.58
36932;BME280;22847;42.654;23.370;2023-04-20T08:51:40;94320.69;;;13.96;60.72
36932;BME280;22847;42.654;23.370;2023-04-20T08:54:05;94224.88;;;13.17;61.06
36932;BME280;22847;42.654;23.370;2023-04-20T08:56:35;94325.47;;;13.93;60.67
36932;BME280;22847;42.654;23.370;2023-04-20T08:59:02;94372.72;;;14.07;61.46
36932;BME280;22847;42.654;23.370;2023-04-20T09:01:28;94234.72;;;13.38;59.70
36932;BME280;22847;42.654;23.370;2023-04-20T09:03:54;94181.47;;;12.92;61.25
36932;BME280;22847;42.654;23.370;2023-04-20T09:06:19;94332.56;;;13.84;60.31
36932;BME280;22847;42.654;23.370;2023-04-20T09:08:47;94329.19;;;13.98;60.13
36932;BME280;22847;42.654;23.370;2023-04-20T09:11:26;94355.28;;;14.22;60.51
36932;BME280;22847;42.654;23.370;2023-04-20T09:14:06;94172.59;;;12.93;60.03
36932;BME280;22847;42.654;23.370;2023-04-20T09:16:35;94379.34;;;14.26;59.05
36932;BME280;22847;42.654;23.370;2023-04-20T09:19:04;94395.00;;;14.11;59.27
36932;BME280;22847;42.654;23.370;2023-04-20T09:21:30;94353.16;;;13.95;61.10
36932;BME280;22847;42.654;23.370;2023-04-20T09:24:04;94358.41;;;14.18;59.77
36932;BME280;22847;42.654;23.370;2023-04-20T09:26:34;94223.94;;;13.41;60.48
36932;BME280;22847;42.654;23.370;2023-04-20T09:29:03;94176.25;;;13.23;59.39
36932;BME280;22847;42.654;23.370;2023-04-20T09:31:29;94199.66;;;13.47;59.63
36932;BME280;22847;42.654;23.370;2023-04-20T09:34:02;94162.13;;;13.32;59.88
36932;BME280;22847;42.654;23.370;2023-04-20T09:36:41;94317.97;;;14.35;59.67
36932;BME280;22847;42.654;23.370;2023-04-20T09:41:36;94263.41;;;14.53;60.44
36932;BME280;22847;42.654;23.370;2023-04-20T09:44:03;94041.03;;;13.30;58.83
36932;BME280;22847;42.654;23.370;2023-04-20T09:46:30;94349.06;;;15.50;57.92
36932;BME280;22847;42.654;23.370;2023-04-20T09:48:57;94351.84;;;15.49;56.72
36932;BME280;22847;42.654;23.370;2023-04-20T09:51:26;94348.75;;;15.45;57.10
36932;BME280;22847;42.654;23.370;2023-04-20T09:53:59;94341.69;;;15.46;57.31
36932;BME280;22847;42.654;23.370;2023-04-20T09:56:26;94342.16;;;15.64;57.22
36932;BME280;22847;42.654;23.370;2023-04-20T09:58:53;94368.44;;;15.79;56.21
36932;BME280;22847;42.654;23.370;2023-04-20T10:01:19;94358.44;;;15.89;55.40
36932;BME280;22847;42.654;23.370;2023-04-20T10:03:46;94337.13;;;15.98;55.76
36932;BME280;22847;42.654;23.370;2023-04-20T10:06:29;94282.56;;;15.86;55.39
36932;BME280;22847;42.654;23.370;2023-04-20T10:08:55;94043.59;;;13.90;55.15
36932;BME280;22847;42.654;23.370;2023-04-20T10:11:35;94313.59;;;15.76;54.22
36932;BME280;22847;42.654;23.370;2023-04-20T10:14:13;94148.22;;;14.73;53.46
36932;BME280;22847;42.654;23.370;2023-04-20T10:16:41;94323.03;;;15.70;54.67
36932;BME280;22847;42.654;23.370;2023-04-20T10:19:06;94192.22;;;14.86;56.30
36932;BME280;22847;42.654;23.370;2023-04-20T10:21:32;94338.88;;;15.77;56.99
36932;BME280;22847;42.654;23.370;2023-04-20T10:24:08;94292.31;;;15.71;55.15
36932;BME280;22847;42.654;23.370;2023-04-20T10:26:38;94337.75;;;15.86;54.90
36932;BME280;22847;42.654;23.370;2023-04-20T10:29:04;94126.72;;;14.63;54.35
36932;BME280;22847;42.654;23.370;2023-04-20T10:31:35;94319.75;;;15.83;55.49
36932;BME280;22847;42.654;23.370;2023-04-20T10:34:01;94307.69;;;15.88;54.57
36932;BME280;22847;42.654;23.370;2023-04-20T10:36:29;94301.59;;;15.88;54.48
36932;BME280;22847;42.654;23.370;2023-04-20T10:38:56;94199.88;;;15.16;55.42
36932;BME280;22847;42.654;23.370;2023-04-20T10:41:21;94296.94;;;15.90;56.21
36932;BME280;22847;42.654;23.370;2023-04-20T10:43:47;94296.16;;;15.89;54.21
36932;BME280;22847;42.654;23.370;2023-04-20T10:46:20;94344.69;;;16.08;55.05
36932;BME280;22847;42.654;23.370;2023-04-20T10:48:57;94284.75;;;15.82;54.71
36932;BME280;22847;42.654;23.370;2023-04-20T10:51:23;94241.16;;;15.73;53.46
36932;BME280;22847;42.654;23.370;2023-04-20T10:54:04;94302.59;;;15.87;53.53
36932;BME280;22847;42.654;23.370;2023-04-20T10:56:37;94309.31;;;16.32;54.54
36932;BME280;22847;42.654;23.370;2023-04-20T10:59:06;94140.63;;;15.50;54.77
36932;BME280;22847;42.654;23.370;2023-04-20T11:01:32;94320.13;;;16.79;52.84
36932;BME280;22847;42.654;23.370;2023-04-20T11:03:58;94309.53;;;17.01;52.32
36932;BME280;22847;42.654;23.370;2023-04-20T11:06:23;94300.47;;;17.10;52.26
36932;BME280;22847;42.654;23.370;2023-04-20T11:08:48;94164.00;;;16.30;51.35
36932;BME280;22847;42.654;23.370;2023-04-20T11:11:18;94310.84;;;17.18;50.00
36932;BME280;22847;42.654;23.370;2023-04-20T11:13:45;94102.16;;;15.85;51.51
36932;BME280;22847;42.654;23.370;2023-04-20T11:16:15;94284.31;;;17.19;51.32
36932;BME280;22847;42.654;23.370;2023-04-20T11:18:53;94182.31;;;16.72;51.74
36932;BME280;22847;42.654;23.370;2023-04-20T11:21:20;94308.50;;;17.64;50.57
36932;BME280;22847;42.654;23.370;2023-04-20T11:23:47;94289.03;;;17.65;48.88
36932;BME280;22847;42.654;23.370;2023-04-20T11:26:12;94260.31;;;17.42;50.58
36932;BME280;22847;42.654;23.370;2023-04-20T11:28:49;94151.59;;;16.79;49.62
36932;BME280;22847;42.654;23.370;2023-04-20T11:31:16;94308.34;;;17.44;49.74
36932;BME280;22847;42.654;23.370;2023-04-20T11:33:42;94278.88;;;17.27;49.78
36932;BME280;22847;42.654;23.370;2023-04-20T11:36:17;94259.09;;;17.04;49.38
36932;BME280;22847;42.654;23.370;2023-04-20T11:38:43;94252.41;;;17.01;48.54
36932;BME280;22847;42.654;23.370;2023-04-20T11:41:08;94136.59;;;16.18;49.55
36932;BME280;22847;42.654;23.370;2023-04-20T11:43:34;94221.91;;;16.58;50.32
36932;BME280;22847;42.654;23.370;2023-04-20T11:46:00;94281.19;;;16.75;50.50
36932;BME280;22847;42.654;23.370;2023-04-20T11:48:29;94260.06;;;16.68;51.84
36932;BME280;22847;42.654;23.370;2023-04-20T11:50:56;94269.84;;;16.74;52.14
36932;BME280;22847;42.654;23.370;2023-04-20T11:53:21;94232.06;;;16.61;50.60
36932;BME280;22847;42.654;23.370;2023-04-20T11:55:47;94135.22;;;15.94;49.87
36932;BME280;22847;42.654;23.370;2023-04-20T11:58:13;94164.47;;;16.12;49.85
36932;BME280;22847;42.654;23.370;2023-04-20T12:00:38;94300.97;;;16.92;50.19
36932;BME280;22847;42.654;23.370;2023-04-20T12:03:04;94235.25;;;16.56;49.69
36932;BME280;22847;42.654;23.370;2023-04-20T12:05:29;94138.69;;;16.01;50.60
36932;BME280;22847;42.654;23.370;2023-04-20T12:07:55;94079.16;;;15.66;50.27
36932;BME280;22847;42.654;23.370;2023-04-20T12:10:20;94113.81;;;15.76;50.91
36932;BME280;22847;42.654;23.370;2023-04-20T12:12:46;94254.56;;;16.63;50.91
36932;BME280;22847;42.654;23.370;2023-04-20T12:15:11;94094.41;;;15.77;50.07
36932;BME280;22847;42.654;23.370;2023-04-20T12:17:37;94273.41;;;16.67;49.42
36932;BME280;22847;42.654;23.370;2023-04-20T12:20:03;94109.13;;;15.71;49.73
36932;BME280;22847;42.654;23.370;2023-04-20T12:22:33;94244.19;;;16.34;50.11
36932;BME280;22847;42.654;23.370;2023-04-20T12:24:58;94080.13;;;15.01;51.61
36932;BME280;22847;42.654;23.370;2023-04-20T12:27:24;94210.06;;;15.77;51.41
36932;BME280;22847;42.654;23.370;2023-04-20T12:29:50;94299.50;;;15.98;51.67
36932;BME280;22847;42.654;23.370;2023-04-20T12:32:15;94266.47;;;15.74;52.47
36932;BME280;22847;42.654;23.370;2023-04-20T12:34:41;94226.03;;;15.39;52.64
36932;BME280;22847;42.654;23.370;2023-04-20T12:37:06;94264.03;;;15.58;53.72
36932;BME280;22847;42.654;23.370;2023-04-20T12:39:31;94123.72;;;14.66;54.49
36932;BME280;22847;42.654;23.370;2023-04-20T12:42:03;94208.47;;;15.25;54.19
36932;BME280;22847;42.654;23.370;2023-04-20T12:44:28;94245.84;;;15.56;54.08
36932;BME280;22847;42.654;23.370;2023-04-20T12:46:54;94142.25;;;14.94;53.11
36932;BME280;22847;42.654;23.370;2023-04-20T12:49:20;94246.44;;;15.73;52.14